createdAt,value
2022-11-13T00:02:38.356Z,10.53
2022-11-13T00:05:24.522Z,10.60
2022-11-13T00:08:10.140Z,10.49
2022-11-13T00:11:21.827Z,10.52
2022-11-13T00:14:07.852Z,10.27
2022-11-13T00:16:53.509Z,10.31
2022-11-13T00:19:39.318Z,9.78
2022-11-13T00:22:25.149Z,10.10
2022-11-13T00:25:10.952Z,10.29
2022-11-13T00:27:56.603Z,10.26
2022-11-13T00:30:42.682Z,10.24
2022-11-13T00:33:54.975Z,10.20
2022-11-13T00:36:34.007Z,9.91
2022-11-13T00:39:19.968Z,10.09
2022-11-13T00:42:05.620Z,10.03
2022-11-13T00:44:51.235Z,10.11
2022-11-13T00:47:37.165Z,10.02
2022-11-13T00:50:22.732Z,9.63
2022-11-13T00:53:08.438Z,9.95
2022-11-13T00:55:54.339Z,10.04
2022-11-13T00:58:40.159Z,9.54
2022-11-13T01:01:25.938Z,9.33
2022-11-13T01:04:11.983Z,9.19
2022-11-13T01:06:57.796Z,9.63
2022-11-13T01:09:43.978Z,9.60
2022-11-13T01:12:29.663Z,9.74
2022-11-13T01:15:15.544Z,9.73
2022-11-13T01:18:01.243Z,9.74
2022-11-13T01:20:46.990Z,9.28
2022-11-13T01:23:32.895Z,9.49
2022-11-13T01:26:26.376Z,9.32
2022-11-13T01:29:12.600Z,9.23
2022-11-13T01:31:58.485Z,9.59
2022-11-13T01:34:44.333Z,9.41
2022-11-13T01:37:30.028Z,9.52
2022-11-13T01:40:15.853Z,9.45
2022-11-13T01:43:14.848Z,9.66
2022-11-13T01:46:00.352Z,9.39
2022-11-13T01:49:07.944Z,9.47
2022-11-13T01:52:04.776Z,9.02
2022-11-13T01:54:53.025Z,8.80
2022-11-13T01:57:38.815Z,8.91
2022-11-13T02:00:24.731Z,9.06
2022-11-13T02:03:11.550Z,9.16
2022-11-13T02:05:57.512Z,8.72
2022-11-13T02:08:43.221Z,8.50
2022-11-13T02:11:29.124Z,8.87
2022-11-13T02:14:14.999Z,8.95
2022-11-13T02:17:01.749Z,9.32
2022-11-13T02:19:49.733Z,9.10
2022-11-13T02:22:50.917Z,9.55
2022-11-13T02:25:36.764Z,8.99
2022-11-13T02:28:22.815Z,9.32
2022-11-13T02:31:09.631Z,9.47
2022-11-13T02:33:55.399Z,9.43
2022-11-13T02:36:41.128Z,9.37
2022-11-13T02:39:26.854Z,9.60
2022-11-13T02:42:12.894Z,9.46
2022-11-13T02:44:58.603Z,9.67
2022-11-13T02:47:44.352Z,9.95
2022-11-13T02:50:30.415Z,9.80
2022-11-13T02:53:16.416Z,9.55
2022-11-13T02:56:02.191Z,9.69
2022-11-13T02:58:47.757Z,9.56
2022-11-13T03:01:33.484Z,9.60
2022-11-13T03:04:19.204Z,9.86
2022-11-13T03:07:04.955Z,9.58
2022-11-13T03:09:50.789Z,9.20
2022-11-13T03:12:36.677Z,9.16
2022-11-13T03:15:22.232Z,9.50
2022-11-13T03:18:08.105Z,9.18
2022-11-13T03:20:54.174Z,9.51
2022-11-13T03:23:40.303Z,9.04
2022-11-13T03:26:28.325Z,9.24
2022-11-13T03:29:13.951Z,9.59
2022-11-13T03:31:59.596Z,9.57
2022-11-13T03:34:45.762Z,9.30
2022-11-13T03:37:31.665Z,8.69
2022-11-13T03:40:17.790Z,8.48
2022-11-13T03:43:03.582Z,9.17
2022-11-13T03:45:49.393Z,8.85
2022-11-13T03:48:35.207Z,9.04
2022-11-13T03:51:20.735Z,9.18
2022-11-13T03:54:06.529Z,8.98
2022-11-13T03:56:52.098Z,9.01
2022-11-13T03:59:37.937Z,8.77
2022-11-13T04:02:23.838Z,8.94
2022-11-13T04:05:09.456Z,9.04
2022-11-13T04:07:55.145Z,9.17
2022-11-13T04:10:40.766Z,8.64
2022-11-13T04:13:26.308Z,8.88
2022-11-13T04:16:12.421Z,8.78
2022-11-13T04:18:58.053Z,9.03
2022-11-13T04:21:43.624Z,8.57
2022-11-13T04:24:29.274Z,8.69
2022-11-13T04:27:14.861Z,8.69
2022-11-13T04:30:00.689Z,9.07
2022-11-13T04:32:46.309Z,9.12
2022-11-13T04:35:32.295Z,8.99
2022-11-13T04:38:18.182Z,8.89
2022-11-13T04:41:22.735Z,8.94
2022-11-13T04:44:08.773Z,8.90
2022-11-13T04:46:54.668Z,8.44
2022-11-13T04:49:40.364Z,9.03
2022-11-13T04:52:26.153Z,9.01
2022-11-13T04:55:11.758Z,8.74
2022-11-13T04:57:57.540Z,8.92
2022-11-13T05:00:43.291Z,8.37
2022-11-13T05:03:28.990Z,8.72
2022-11-13T05:06:14.620Z,8.75
2022-11-13T05:09:00.280Z,8.94
2022-11-13T05:11:45.907Z,8.43
2022-11-13T05:14:31.616Z,8.79
2022-11-13T05:17:17.460Z,8.69
2022-11-13T05:20:03.499Z,8.57
2022-11-13T05:22:49.545Z,8.50
2022-11-13T05:25:35.328Z,8.23
2022-11-13T05:28:21.281Z,7.88
2022-11-13T05:31:08.791Z,8.33
2022-11-13T05:33:54.606Z,7.84
2022-11-13T05:36:40.308Z,8.44
2022-11-13T05:39:25.930Z,8.46
2022-11-13T05:42:12.058Z,8.38
2022-11-13T05:44:57.671Z,8.37
2022-11-13T05:47:43.256Z,8.71
2022-11-13T05:50:28.965Z,8.73
2022-11-13T05:53:14.607Z,8.39
2022-11-13T05:56:04.941Z,8.70
2022-11-13T05:58:51.171Z,8.75
2022-11-13T06:01:37.805Z,8.84
2022-11-13T06:04:23.684Z,8.73
2022-11-13T06:07:09.373Z,8.82
2022-11-13T06:09:54.885Z,8.96
2022-11-13T06:12:40.745Z,9.05
2022-11-13T06:15:26.393Z,8.90
2022-11-13T06:18:12.267Z,8.97
2022-11-13T06:21:05.339Z,8.99
2022-11-13T06:23:51.218Z,8.95
2022-11-13T06:26:36.908Z,8.87
2022-11-13T06:29:22.569Z,9.17
2022-11-13T06:32:08.408Z,9.13
2022-11-13T06:34:54.054Z,9.14
2022-11-13T06:37:40.095Z,9.07
2022-11-13T06:40:25.666Z,8.75
2022-11-13T06:43:11.266Z,8.96
2022-11-13T06:45:57.268Z,8.68
2022-11-13T06:48:43.191Z,8.61
2022-11-13T06:51:29.762Z,8.69
2022-11-13T06:54:15.876Z,9.09
2022-11-13T06:57:01.616Z,9.11
2022-11-13T06:59:47.203Z,9.16
2022-11-13T07:02:32.957Z,9.11
2022-11-13T07:05:18.567Z,9.01
2022-11-13T07:08:04.261Z,9.46
2022-11-13T07:10:54.756Z,8.94
2022-11-13T07:13:40.823Z,9.36
2022-11-13T07:16:38.945Z,9.95
2022-11-13T07:19:32.747Z,9.65
2022-11-13T07:22:18.501Z,9.97
2022-11-13T07:25:04.378Z,9.97
2022-11-13T07:27:50.209Z,10.27
2022-11-13T07:30:35.902Z,10.05
2022-11-13T07:33:21.634Z,9.99
2022-11-13T07:36:08.341Z,9.84
2022-11-13T07:38:57.860Z,9.93
2022-11-13T07:41:47.452Z,9.82
2022-11-13T07:44:53.577Z,10.18
2022-11-13T07:47:39.338Z,10.13
2022-11-13T07:50:26.051Z,10.57
2022-11-13T07:53:11.751Z,10.38
2022-11-13T07:56:00.706Z,10.88
2022-11-13T07:58:46.337Z,10.30
2022-11-13T08:01:32.128Z,10.76
2022-11-13T08:04:18.307Z,10.79
2022-11-13T08:07:03.934Z,11.13
2022-11-13T08:09:50.070Z,10.60
2022-11-13T08:12:35.792Z,10.67
2022-11-13T08:15:21.500Z,10.84
2022-11-13T08:18:07.315Z,11.21
2022-11-13T08:20:52.977Z,11.14
2022-11-13T08:23:38.750Z,11.05
2022-11-13T08:26:24.402Z,11.20
2022-11-13T08:29:10.305Z,11.19
2022-11-13T08:31:56.175Z,11.14
2022-11-13T08:34:41.821Z,11.52
2022-11-13T08:37:27.650Z,11.85
2022-11-13T08:40:13.517Z,11.89
2022-11-13T08:43:00.292Z,11.39
2022-11-13T08:45:47.379Z,11.15
2022-11-13T08:48:33.405Z,11.30
2022-11-13T08:51:19.038Z,11.52
2022-11-13T08:54:04.900Z,12.02
2022-11-13T08:56:55.800Z,11.96
2022-11-13T08:59:42.588Z,12.12
2022-11-13T09:02:28.664Z,11.37
2022-11-13T09:05:14.479Z,12.09
2022-11-13T09:08:01.137Z,12.48
2022-11-13T09:10:47.379Z,12.20
2022-11-13T09:13:33.826Z,12.53
2022-11-13T09:16:19.639Z,12.34
2022-11-13T09:19:05.451Z,12.54
2022-11-13T09:21:51.824Z,12.48
2022-11-13T09:24:38.283Z,12.70
2022-11-13T09:27:24.097Z,12.59
2022-11-13T09:30:10.173Z,12.79
2022-11-13T09:32:57.152Z,12.30
2022-11-13T09:35:43.151Z,12.01
2022-11-13T09:38:31.973Z,12.28
2022-11-13T09:41:20.775Z,12.33
2022-11-13T09:44:12.209Z,12.17
2022-11-13T09:47:14.700Z,12.15
2022-11-13T09:50:02.128Z,12.30
2022-11-13T09:52:47.768Z,11.59
2022-11-13T09:55:35.063Z,11.52
2022-11-13T09:58:26.562Z,11.12
2022-11-13T10:01:17.868Z,11.84
2022-11-13T10:04:06.952Z,12.04
2022-11-13T10:07:00.701Z,10.93
2022-11-13T10:09:55.518Z,10.81
2022-11-13T10:12:41.284Z,10.86
2022-11-13T10:15:26.973Z,10.75
2022-11-13T10:18:24.155Z,10.06
2022-11-13T10:21:13.283Z,10.20
2022-11-13T10:23:58.965Z,10.49
2022-11-13T10:26:44.759Z,10.39
2022-11-13T10:29:30.832Z,10.39
2022-11-13T10:32:27.712Z,10.58
2022-11-13T10:35:22.238Z,10.43
2022-11-13T10:38:21.980Z,11.05
2022-11-13T10:41:13.376Z,10.80
2022-11-13T10:44:07.042Z,10.66
2022-11-13T10:47:06.221Z,11.31
2022-11-13T10:49:51.916Z,11.25
2022-11-13T10:52:45.085Z,11.61
2022-11-13T10:55:41.007Z,11.81
2022-11-13T10:58:26.937Z,11.92
2022-11-13T11:01:23.042Z,12.23
2022-11-13T11:04:12.802Z,12.63
2022-11-13T11:07:22.050Z,12.68
2022-11-13T11:10:23.616Z,12.87
2022-11-13T11:13:20.266Z,12.91
2022-11-13T11:16:06.420Z,12.03
2022-11-13T11:18:56.362Z,12.29
2022-11-13T11:21:42.626Z,12.23
2022-11-13T11:24:32.454Z,12.16
2022-11-13T11:27:22.965Z,12.69
2022-11-13T11:30:22.784Z,12.42
2022-11-13T11:33:48.894Z,12.74
2022-11-13T11:37:04.004Z,13.11
2022-11-13T11:40:00.001Z,12.90
2022-11-13T11:42:54.353Z,13.23
2022-11-13T11:45:42.782Z,13.65
2022-11-13T11:48:31.269Z,13.43
2022-11-13T11:51:34.677Z,13.10
2022-11-13T11:54:27.932Z,13.48
2022-11-13T11:57:22.751Z,13.39
2022-11-13T12:00:18.570Z,13.59
2022-11-13T12:03:04.357Z,13.42
2022-11-13T12:06:14.710Z,13.11
2022-11-13T12:09:09.010Z,13.35
2022-11-13T12:12:33.651Z,13.58
2022-11-13T12:15:35.317Z,13.72
2022-11-13T12:18:30.320Z,13.46
2022-11-13T12:21:34.295Z,12.92
2022-11-13T12:24:49.881Z,13.58
2022-11-13T12:27:58.958Z,13.15
2022-11-13T12:31:23.271Z,13.35
2022-11-13T12:34:26.369Z,13.16
2022-11-13T12:37:13.839Z,12.57
2022-11-13T12:40:07.789Z,12.64
2022-11-13T12:42:57.608Z,12.81
2022-11-13T12:45:50.340Z,13.05
2022-11-13T12:48:38.272Z,13.03
2022-11-13T12:51:23.955Z,12.81
2022-11-13T12:54:10.050Z,12.56
2022-11-13T12:57:30.029Z,13.20
2022-11-13T13:00:26.764Z,13.16
2022-11-13T13:03:12.425Z,12.95
2022-11-13T13:06:06.841Z,13.18
2022-11-13T13:09:18.511Z,13.21
2022-11-13T13:12:13.358Z,13.30
2022-11-13T13:15:17.574Z,12.95
2022-11-13T13:18:11.686Z,12.63
2022-11-13T13:20:57.518Z,13.27
2022-11-13T13:23:50.973Z,12.96
2022-11-13T13:26:44.904Z,13.04
2022-11-13T13:29:30.922Z,12.08
2022-11-13T13:32:42.617Z,12.51
2022-11-13T13:36:00.833Z,12.71
2022-11-13T13:39:07.739Z,12.93
2022-11-13T13:41:58.034Z,13.08
2022-11-13T13:44:57.948Z,13.32
2022-11-13T13:47:45.438Z,13.08
2022-11-13T13:50:33.435Z,13.10
2022-11-13T13:53:31.094Z,13.19
2022-11-13T13:56:17.018Z,13.29
2022-11-13T13:59:02.875Z,13.16
2022-11-13T14:02:23.050Z,13.01
2022-11-13T14:05:30.399Z,13.08
2022-11-13T14:08:20.093Z,13.07
2022-11-13T14:14:35.567Z,13.16
2022-11-13T14:17:25.216Z,12.72
2022-11-13T14:20:11.771Z,12.99
2022-11-13T14:22:57.588Z,12.94
2022-11-13T14:25:43.275Z,12.95
2022-11-13T14:28:53.412Z,13.05
2022-11-13T14:31:39.582Z,13.10
2022-11-13T14:34:25.616Z,13.13
2022-11-13T14:37:16.961Z,13.04
2022-11-13T14:40:27.215Z,12.98
2022-11-13T14:43:33.429Z,13.00
2022-11-13T14:46:38.994Z,13.14
2022-11-13T14:49:35.197Z,12.76
2022-11-13T14:52:22.557Z,12.89
2022-11-13T14:55:19.857Z,12.90
2022-11-13T14:58:05.893Z,12.46
2022-11-13T15:00:51.830Z,12.52
2022-11-13T15:03:37.756Z,12.59
2022-11-13T15:06:25.449Z,12.39
2022-11-13T15:09:15.188Z,12.09
2022-11-13T15:12:00.926Z,12.31
2022-11-13T15:14:47.011Z,12.10
2022-11-13T15:17:32.611Z,12.42
2022-11-13T15:20:24.184Z,12.17
2022-11-13T15:23:13.583Z,12.06
2022-11-13T15:25:59.702Z,12.09
2022-11-13T15:28:45.603Z,12.06
2022-11-13T15:31:33.327Z,12.04
2022-11-13T15:34:19.465Z,11.82
2022-11-13T15:37:15.850Z,11.89
2022-11-13T15:40:01.981Z,11.79
2022-11-13T15:42:48.037Z,11.93
2022-11-13T15:45:33.784Z,11.90
2022-11-13T15:48:19.971Z,11.79
2022-11-13T15:51:05.574Z,11.89
2022-11-13T15:54:00.199Z,11.50
2022-11-13T15:56:46.600Z,11.76
2022-11-13T15:59:32.402Z,11.83
2022-11-13T16:02:18.321Z,11.69
2022-11-13T16:05:04.070Z,11.72
2022-11-13T16:07:49.872Z,11.52
2022-11-13T16:10:35.472Z,11.34
2022-11-13T16:13:21.197Z,11.67
2022-11-13T16:16:10.031Z,11.57
2022-11-13T16:19:00.206Z,11.50
2022-11-13T16:21:46.319Z,11.43
2022-11-13T16:24:32.091Z,11.39
2022-11-13T16:27:28.555Z,11.55
2022-11-13T16:30:20.166Z,11.72
2022-11-13T16:33:10.230Z,11.30
2022-11-13T16:35:55.863Z,10.77
2022-11-13T16:38:42.182Z,11.31
2022-11-13T16:41:28.036Z,11.41
2022-11-13T16:44:13.795Z,11.33
2022-11-13T16:46:59.487Z,11.18
2022-11-13T16:49:45.723Z,11.38
2022-11-13T16:52:31.882Z,11.02
2022-11-13T16:55:17.699Z,11.23
2022-11-13T16:58:04.248Z,11.37
2022-11-13T17:00:49.842Z,11.43
2022-11-13T17:03:35.524Z,11.23
2022-11-13T17:06:26.940Z,11.29
2022-11-13T17:09:13.055Z,11.04
2022-11-13T17:11:58.760Z,11.28
2022-11-13T17:14:45.720Z,11.37
2022-11-13T17:17:31.318Z,11.09
2022-11-13T17:20:19.362Z,11.24
2022-11-13T17:23:05.121Z,10.57
2022-11-13T17:25:50.722Z,11.04
2022-11-13T17:28:37.016Z,11.04
2022-11-13T17:31:23.119Z,10.68
2022-11-13T17:34:08.882Z,10.49
2022-11-13T17:36:57.560Z,10.98
2022-11-13T17:39:43.178Z,11.01
2022-11-13T17:42:28.902Z,11.30
2022-11-13T17:45:14.737Z,11.19
2022-11-13T17:48:00.256Z,11.14
2022-11-13T17:50:45.962Z,10.72
2022-11-13T17:53:31.783Z,10.74
2022-11-13T17:56:20.121Z,11.00
2022-11-13T17:59:05.985Z,10.83
2022-11-13T18:01:51.601Z,10.88
2022-11-13T18:04:37.843Z,10.98
2022-11-13T18:07:23.698Z,11.00
2022-11-13T18:10:11.044Z,11.07
2022-11-13T18:12:57.219Z,11.26
2022-11-13T18:15:44.176Z,10.96
2022-11-13T18:18:29.865Z,11.16
2022-11-13T18:21:23.897Z,11.26
2022-11-13T18:24:15.533Z,10.98
2022-11-13T18:27:01.304Z,11.21
2022-11-13T18:29:47.016Z,10.56
2022-11-13T18:32:32.651Z,10.82
2022-11-13T18:35:18.478Z,9.87
2022-11-13T18:38:04.368Z,10.39
2022-11-13T18:40:50.583Z,10.88
2022-11-13T18:43:36.584Z,10.95
2022-11-13T18:46:22.196Z,10.70
2022-11-13T18:49:09.115Z,10.89
2022-11-13T18:51:55.007Z,10.33
2022-11-13T18:54:40.659Z,10.39
2022-11-13T18:57:26.532Z,10.46
2022-11-13T19:00:12.568Z,10.47
2022-11-13T19:02:58.412Z,10.48
2022-11-13T19:05:47.451Z,10.65
2022-11-13T19:08:37.065Z,10.82
2022-11-13T19:11:26.778Z,10.34
2022-11-13T19:14:17.172Z,10.66
2022-11-13T19:17:03.080Z,10.49
2022-11-13T19:19:48.979Z,10.55
2022-11-13T19:22:34.677Z,10.73
2022-11-13T19:25:20.739Z,10.65
2022-11-13T19:28:06.737Z,10.82
2022-11-13T19:30:54.835Z,10.69
2022-11-13T19:33:40.774Z,10.59
2022-11-13T19:36:28.114Z,10.63
2022-11-13T19:39:13.865Z,10.65
2022-11-13T19:41:59.480Z,10.65
2022-11-13T19:44:45.149Z,10.59
2022-11-13T19:47:30.902Z,10.19
2022-11-13T19:50:16.770Z,10.28
2022-11-13T19:53:02.415Z,10.39
2022-11-13T19:55:55.210Z,10.45
2022-11-13T19:58:44.163Z,10.61
2022-11-13T20:01:32.116Z,10.78
2022-11-13T20:04:17.985Z,10.59
2022-11-13T20:07:03.751Z,10.53
2022-11-13T20:09:49.893Z,10.77
2022-11-13T20:12:35.712Z,10.01
2022-11-13T20:15:21.439Z,10.23
2022-11-13T20:18:07.365Z,10.36
2022-11-13T20:20:54.869Z,10.43
2022-11-13T20:23:41.230Z,10.39
2022-11-13T20:26:27.527Z,10.49
2022-11-13T20:29:13.200Z,10.37
2022-11-13T20:31:59.763Z,10.45
2022-11-13T20:34:46.151Z,10.32
2022-11-13T20:37:31.825Z,9.99
2022-11-13T20:40:17.845Z,10.10
2022-11-13T20:43:03.724Z,10.31
2022-11-13T20:45:49.497Z,10.27
2022-11-13T20:48:35.384Z,9.55
2022-11-13T20:51:23.821Z,9.72
2022-11-13T20:54:09.779Z,9.89
2022-11-13T20:56:55.597Z,9.76
2022-11-13T20:59:41.420Z,9.88
2022-11-13T21:02:27.487Z,9.82
2022-11-13T21:05:13.296Z,9.57
2022-11-13T21:07:58.815Z,9.65
2022-11-13T21:10:44.648Z,9.90
2022-11-13T21:13:30.610Z,10.06
2022-11-13T21:16:16.740Z,9.76
2022-11-13T21:19:02.719Z,9.95
2022-11-13T21:21:48.467Z,9.75
2022-11-13T21:24:34.023Z,10.09
2022-11-13T21:27:19.962Z,9.91
2022-11-13T21:30:06.232Z,9.77
2022-11-13T21:32:51.953Z,9.71
2022-11-13T21:35:37.635Z,9.47
2022-11-13T21:38:23.377Z,9.53
2022-11-13T21:41:23.165Z,9.23
2022-11-13T21:44:10.562Z,9.40
2022-11-13T21:46:56.495Z,10.11
2022-11-13T21:49:42.179Z,9.68
2022-11-13T21:52:27.903Z,9.91
2022-11-13T21:55:13.533Z,9.58
2022-11-13T21:57:59.178Z,9.39
2022-11-13T22:00:45.183Z,9.40
2022-11-13T22:03:30.891Z,9.08
2022-11-13T22:06:16.593Z,9.02
2022-11-13T22:09:12.959Z,8.52
2022-11-13T22:11:58.606Z,8.48
2022-11-13T22:14:44.204Z,9.09
2022-11-13T22:17:30.059Z,9.26
2022-11-13T22:20:16.235Z,9.22
2022-11-13T22:23:05.326Z,9.43
2022-11-13T22:25:53.491Z,9.42
2022-11-13T22:28:43.749Z,9.05
2022-11-13T22:31:30.417Z,8.85
2022-11-13T22:34:16.460Z,8.95
2022-11-13T22:37:02.060Z,9.03
2022-11-13T22:39:47.808Z,8.34
2022-11-13T22:42:33.500Z,7.82
2022-11-13T22:45:23.779Z,7.69
2022-11-13T22:48:10.705Z,7.74
2022-11-13T22:50:56.765Z,7.99
2022-11-13T22:53:43.589Z,8.18
2022-11-13T22:56:30.891Z,8.33
2022-11-13T22:59:17.003Z,8.18
2022-11-13T23:02:02.705Z,8.43
2022-11-13T23:04:48.551Z,8.51
2022-11-13T23:07:34.234Z,8.06
2022-11-13T23:10:19.964Z,8.36
2022-11-13T23:13:05.666Z,8.04
2022-11-13T23:15:51.321Z,8.14
2022-11-13T23:18:38.072Z,8.42
2022-11-13T23:21:25.255Z,8.99
2022-11-13T23:24:11.391Z,8.90
2022-11-13T23:26:57.189Z,8.35
2022-11-13T23:29:48.782Z,8.62
2022-11-13T23:32:35.804Z,8.14
2022-11-13T23:35:21.620Z,8.41
2022-11-13T23:38:07.406Z,8.74
2022-11-13T23:40:56.870Z,8.62
2022-11-13T23:46:48.723Z,8.58
2022-11-13T23:49:34.700Z,8.17
2022-11-13T23:52:20.379Z,8.66
2022-11-13T23:55:06.329Z,8.88
2022-11-13T23:58:02.425Z,9.37
